sensor_id;sensor_type;location;lat;lon;timestamp;P1;durP1;ratioP1;P2;durP2;ratioP2
21107;SDS011;10712;52.944;9.098;2022-08-01T00:00:42;1.35;;;0.85;;
21107;SDS011;10712;52.944;9.098;2022-08-01T00:03:07;1.42;;;0.80;;
21107;SDS011;10712;52.944;9.098;2022-08-01T00:05:33;2.47;;;1.00;;
21107;SDS011;10712;52.944;9.098;2022-08-01T00:07:59;0.60;;;0.60;;
21107;SDS011;10712;52.944;9.098;2022-08-01T00:10:25;0.60;;;0.60;;
21107;SDS011;10712;52.944;9.098;2022-08-01T00:12:51;0.70;;;0.70;;
21107;SDS011;10712;52.944;9.098;2022-08-01T00:15:17;1.15;;;0.73;;
21107;SDS011;10712;52.944;9.098;2022-08-01T00:17:43;1.40;;;1.30;;
21107;SDS011;10712;52.944;9.098;2022-08-01T00:20:10;1.40;;;1.30;;
21107;SDS011;10712;52.944;9.098;2022-08-01T00:22:39;1.23;;;1.13;;
21107;SDS011;10712;52.944;9.098;2022-08-01T00:25:06;1.30;;;1.20;;
21107;SDS011;10712;52.944;9.098;2022-08-01T00:27:32;1.63;;;1.53;;
21107;SDS011;10712;52.944;9.098;2022-08-01T00:29:58;1.58;;;1.48;;
21107;SDS011;10712;52.944;9.098;2022-08-01T00:32:24;1.30;;;1.20;;
21107;SDS011;10712;52.944;9.098;2022-08-01T00:34:55;3.05;;;2.05;;
21107;SDS011;10712;52.944;9.098;2022-08-01T00:37:21;1.67;;;1.58;;
21107;SDS011;10712;52.944;9.098;2022-08-01T00:39:47;2.40;;;2.25;;
21107;SDS011;10712;52.944;9.098;2022-08-01T00:42:13;6.18;;;2.83;;
21107;SDS011;10712;52.944;9.098;2022-08-01T00:44:39;2.30;;;2.20;;
21107;SDS011;10712;52.944;9.098;2022-08-01T00:47:05;3.50;;;3.20;;
21107;SDS011;10712;52.944;9.098;2022-08-01T00:49:32;3.72;;;3.42;;
21107;SDS011;10712;52.944;9.098;2022-08-01T00:51:58;3.20;;;3.00;;
21107;SDS011;10712;52.944;9.098;2022-08-01T00:54:25;5.32;;;4.88;;
21107;SDS011;10712;52.944;9.098;2022-08-01T00:56:52;3.80;;;3.50;;
21107;SDS011;10712;52.944;9.098;2022-08-01T00:59:20;4.50;;;3.28;;
21107;SDS011;10712;52.944;9.098;2022-08-01T01:01:48;3.95;;;3.55;;
21107;SDS011;10712;52.944;9.098;2022-08-01T01:04:15;4.35;;;3.95;;
21107;SDS011;10712;52.944;9.098;2022-08-01T01:18:03;4.05;;;3.75;;
21107;SDS011;10712;52.944;9.098;2022-08-01T01:20:41;4.10;;;3.47;;
21107;SDS011;10712;52.944;9.098;2022-08-01T01:29:37;5.15;;;4.65;;
21107;SDS011;10712;52.944;9.098;2022-08-01T01:32:20;4.38;;;3.97;;
21107;SDS011;10712;52.944;9.098;2022-08-01T01:35:07;5.85;;;4.85;;
21107;SDS011;10712;52.944;9.098;2022-08-01T01:37:56;6.03;;;4.97;;
21107;SDS011;10712;52.944;9.098;2022-08-01T01:40:29;6.00;;;5.50;;
21107;SDS011;10712;52.944;9.098;2022-08-01T01:42:57;6.95;;;6.35;;
21107;SDS011;10712;52.944;9.098;2022-08-01T01:45:24;8.07;;;6.50;;
21107;SDS011;10712;52.944;9.098;2022-08-01T01:47:52;6.80;;;6.05;;
21107;SDS011;10712;52.944;9.098;2022-08-01T01:50:20;6.78;;;6.10;;
21107;SDS011;10712;52.944;9.098;2022-08-01T01:52:48;6.50;;;5.90;;
21107;SDS011;10712;52.944;9.098;2022-08-01T01:55:17;7.00;;;5.63;;
21107;SDS011;10712;52.944;9.098;2022-08-01T01:57:46;6.35;;;5.68;;
21107;SDS011;10712;52.944;9.098;2022-08-01T02:00:14;6.13;;;5.53;;
21107;SDS011;10712;52.944;9.098;2022-08-01T02:02:41;5.63;;;5.03;;
21107;SDS011;10712;52.944;9.098;2022-08-01T02:05:10;5.72;;;5.15;;
21107;SDS011;10712;52.944;9.098;2022-08-01T02:07:37;6.47;;;5.43;;
21107;SDS011;10712;52.944;9.098;2022-08-01T02:10:06;4.82;;;4.43;;
21107;SDS011;10712;52.944;9.098;2022-08-01T02:12:36;5.78;;;5.28;;
21107;SDS011;10712;52.944;9.098;2022-08-01T02:15:06;5.57;;;5.07;;
21107;SDS011;10712;52.944;9.098;2022-08-01T02:17:36;7.28;;;5.57;;
21107;SDS011;10712;52.944;9.098;2022-08-01T02:20:08;7.45;;;5.72;;
21107;SDS011;10712;52.944;9.098;2022-08-01T02:22:46;6.95;;;6.28;;
21107;SDS011;10712;52.944;9.098;2022-08-01T02:25:25;9.93;;;7.03;;
21107;SDS011;10712;52.944;9.098;2022-08-01T02:27:59;8.77;;;6.68;;
21107;SDS011;10712;52.944;9.098;2022-08-01T02:30:32;7.07;;;6.35;;
21107;SDS011;10712;52.944;9.098;2022-08-01T02:33:03;6.80;;;6.10;;
21107;SDS011;10712;52.944;9.098;2022-08-01T02:35:58;8.77;;;7.15;;
21107;SDS011;10712;52.944;9.098;2022-08-01T02:38:27;9.38;;;6.85;;
21107;SDS011;10712;52.944;9.098;2022-08-01T02:40:57;8.68;;;6.70;;
21107;SDS011;10712;52.944;9.098;2022-08-01T02:43:30;6.88;;;6.15;;
21107;SDS011;10712;52.944;9.098;2022-08-01T02:46:01;7.65;;;6.85;;
21107;SDS011;10712;52.944;9.098;2022-08-01T02:48:30;8.75;;;6.68;;
21107;SDS011;10712;52.944;9.098;2022-08-01T02:51:01;11.50;;;7.65;;
21107;SDS011;10712;52.944;9.098;2022-08-01T02:53:30;8.25;;;7.38;;
21107;SDS011;10712;52.944;9.098;2022-08-01T02:56:03;7.47;;;6.63;;
21107;SDS011;10712;52.944;9.098;2022-08-01T02:58:33;7.80;;;7.03;;
21107;SDS011;10712;52.944;9.098;2022-08-01T03:01:03;7.97;;;6.80;;
21107;SDS011;10712;52.944;9.098;2022-08-01T03:03:32;6.53;;;5.30;;
21107;SDS011;10712;52.944;9.098;2022-08-01T03:05:59;5.20;;;4.70;;
21107;SDS011;10712;52.944;9.098;2022-08-01T03:08:28;4.63;;;3.90;;
21107;SDS011;10712;52.944;9.098;2022-08-01T03:10:56;4.40;;;4.00;;
21107;SDS011;10712;52.944;9.098;2022-08-01T03:13:25;3.33;;;3.08;;
21107;SDS011;10712;52.944;9.098;2022-08-01T03:15:54;4.25;;;3.20;;
21107;SDS011;10712;52.944;9.098;2022-08-01T03:18:23;3.00;;;2.80;;
21107;SDS011;10712;52.944;9.098;2022-08-01T03:20:52;3.60;;;2.75;;
21107;SDS011;10712;52.944;9.098;2022-08-01T03:23:20;2.97;;;2.75;;
21107;SDS011;10712;52.944;9.098;2022-08-01T03:25:47;3.78;;;3.03;;
21107;SDS011;10712;52.944;9.098;2022-08-01T03:28:16;3.00;;;2.78;;
21107;SDS011;10712;52.944;9.098;2022-08-01T03:30:45;3.25;;;2.75;;
21107;SDS011;10712;52.944;9.098;2022-08-01T03:33:15;3.00;;;2.70;;
21107;SDS011;10712;52.944;9.098;2022-08-01T03:35:48;4.15;;;3.33;;
21107;SDS011;10712;52.944;9.098;2022-08-01T03:38:19;3.08;;;2.88;;
21107;SDS011;10712;52.944;9.098;2022-08-01T03:40:59;3.83;;;3.53;;
21107;SDS011;10712;52.944;9.098;2022-08-01T03:43:38;3.72;;;3.33;;
21107;SDS011;10712;52.944;9.098;2022-08-01T03:46:13;3.80;;;3.50;;
21107;SDS011;10712;52.944;9.098;2022-08-01T03:48:47;4.28;;;3.40;;
21107;SDS011;10712;52.944;9.098;2022-08-01T03:51:18;3.55;;;3.35;;
21107;SDS011;10712;52.944;9.098;2022-08-01T03:53:48;4.13;;;3.28;;
21107;SDS011;10712;52.944;9.098;2022-08-01T03:56:19;4.53;;;3.60;;
21107;SDS011;10712;52.944;9.098;2022-08-01T03:58:49;4.40;;;4.00;;
21107;SDS011;10712;52.944;9.098;2022-08-01T04:01:16;5.72;;;4.75;;
21107;SDS011;10712;52.944;9.098;2022-08-01T04:03:43;5.45;;;4.40;;
21107;SDS011;10712;52.944;9.098;2022-08-01T04:06:10;3.63;;;3.33;;
21107;SDS011;10712;52.944;9.098;2022-08-01T04:08:38;4.13;;;3.83;;
21107;SDS011;10712;52.944;9.098;2022-08-01T04:11:07;5.30;;;4.20;;
21107;SDS011;10712;52.944;9.098;2022-08-01T04:13:34;4.95;;;4.45;;
21107;SDS011;10712;52.944;9.098;2022-08-01T04:16:00;4.45;;;4.05;;
21107;SDS011;10712;52.944;9.098;2022-08-01T04:18:26;4.20;;;3.85;;
21107;SDS011;10712;52.944;9.098;2022-08-01T04:20:52;4.30;;;3.90;;
21107;SDS011;10712;52.944;9.098;2022-08-01T04:23:19;5.07;;;4.57;;
21107;SDS011;10712;52.944;9.098;2022-08-01T04:25:51;5.60;;;5.10;;
21107;SDS011;10712;52.944;9.098;2022-08-01T04:28:21;5.50;;;4.78;;
21107;SDS011;10712;52.944;9.098;2022-08-01T04:30:49;8.43;;;5.22;;
21107;SDS011;10712;52.944;9.098;2022-08-01T04:33:20;6.35;;;5.78;;
21107;SDS011;10712;52.944;9.098;2022-08-01T04:35:48;6.25;;;5.25;;
21107;SDS011;10712;52.944;9.098;2022-08-01T04:38:17;4.82;;;4.30;;
21107;SDS011;10712;52.944;9.098;2022-08-01T04:40:49;6.50;;;4.47;;
21107;SDS011;10712;52.944;9.098;2022-08-01T04:43:17;5.32;;;4.82;;
21107;SDS011;10712;52.944;9.098;2022-08-01T04:45:43;5.85;;;5.07;;
21107;SDS011;10712;52.944;9.098;2022-08-01T04:48:12;4.75;;;4.35;;
21107;SDS011;10712;52.944;9.098;2022-08-01T04:50:41;5.57;;;4.90;;
21107;SDS011;10712;52.944;9.098;2022-08-01T04:53:14;5.63;;;4.30;;
21107;SDS011;10712;52.944;9.098;2022-08-01T04:55:43;5.22;;;4.72;;
21107;SDS011;10712;52.944;9.098;2022-08-01T04:58:11;4.53;;;4.13;;
21107;SDS011;10712;52.944;9.098;2022-08-01T05:00:38;4.70;;;4.07;;
21107;SDS011;10712;52.944;9.098;2022-08-01T05:03:04;4.15;;;3.83;;
21107;SDS011;10712;52.944;9.098;2022-08-01T05:05:29;4.15;;;3.75;;
21107;SDS011;10712;52.944;9.098;2022-08-01T05:07:56;3.22;;;3.03;;
21107;SDS011;10712;52.944;9.098;2022-08-01T05:10:22;2.90;;;2.70;;
21107;SDS011;10712;52.944;9.098;2022-08-01T05:12:48;2.90;;;2.70;;
21107;SDS011;10712;52.944;9.098;2022-08-01T05:15:15;4.72;;;3.78;;
21107;SDS011;10712;52.944;9.098;2022-08-01T05:17:41;3.90;;;3.10;;
21107;SDS011;10712;52.944;9.098;2022-08-01T05:20:07;3.90;;;3.60;;
21107;SDS011;10712;52.944;9.098;2022-08-01T05:22:34;5.88;;;5.05;;
21107;SDS011;10712;52.944;9.098;2022-08-01T05:24:59;5.90;;;5.25;;
21107;SDS011;10712;52.944;9.098;2022-08-01T05:27:25;6.47;;;5.80;;
21107;SDS011;10712;52.944;9.098;2022-08-01T05:29:51;6.78;;;5.35;;
21107;SDS011;10712;52.944;9.098;2022-08-01T05:32:17;5.03;;;4.57;;
21107;SDS011;10712;52.944;9.098;2022-08-01T05:35:04;4.60;;;4.20;;
21107;SDS011;10712;52.944;9.098;2022-08-01T05:37:31;4.30;;;3.90;;
21107;SDS011;10712;52.944;9.098;2022-08-01T05:39:56;4.70;;;4.30;;
21107;SDS011;10712;52.944;9.098;2022-08-01T05:42:22;6.00;;;4.05;;
21107;SDS011;10712;52.944;9.098;2022-08-01T05:44:48;6.65;;;3.55;;
21107;SDS011;10712;52.944;9.098;2022-08-01T05:47:15;2.95;;;2.75;;
21107;SDS011;10712;52.944;9.098;2022-08-01T05:49:42;1.85;;;1.75;;
21107;SDS011;10712;52.944;9.098;2022-08-01T05:52:09;1.48;;;1.38;;
21107;SDS011;10712;52.944;9.098;2022-08-01T05:54:35;2.97;;;1.90;;
21107;SDS011;10712;52.944;9.098;2022-08-01T05:57:01;2.03;;;1.27;;
21107;SDS011;10712;52.944;9.098;2022-08-01T05:59:30;3.15;;;1.20;;
21107;SDS011;10712;52.944;9.098;2022-08-01T06:01:56;2.80;;;1.65;;
21107;SDS011;10712;52.944;9.098;2022-08-01T06:04:22;2.60;;;1.10;;
21107;SDS011;10712;52.944;9.098;2022-08-01T06:06:48;1.52;;;1.25;;
21107;SDS011;10712;52.944;9.098;2022-08-01T06:09:14;0.85;;;0.70;;
21107;SDS011;10712;52.944;9.098;2022-08-01T06:11:40;2.00;;;0.88;;
21107;SDS011;10712;52.944;9.098;2022-08-01T06:14:06;1.33;;;0.63;;
21107;SDS011;10712;52.944;9.098;2022-08-01T06:16:32;2.45;;;0.90;;
21107;SDS011;10712;52.944;9.098;2022-08-01T06:18:58;1.08;;;0.88;;
21107;SDS011;10712;52.944;9.098;2022-08-01T06:21:24;1.08;;;0.88;;
21107;SDS011;10712;52.944;9.098;2022-08-01T06:23:50;1.05;;;0.80;;
21107;SDS011;10712;52.944;9.098;2022-08-01T06:26:19;0.85;;;0.80;;
21107;SDS011;10712;52.944;9.098;2022-08-01T06:28:45;2.17;;;0.77;;
21107;SDS011;10712;52.944;9.098;2022-08-01T06:31:11;3.28;;;1.10;;
21107;SDS011;10712;52.944;9.098;2022-08-01T06:33:38;4.97;;;1.20;;
21107;SDS011;10712;52.944;9.098;2022-08-01T06:36:04;4.13;;;1.48;;
21107;SDS011;10712;52.944;9.098;2022-08-01T06:38:30;1.50;;;1.38;;
21107;SDS011;10712;52.944;9.098;2022-08-01T06:40:56;5.20;;;1.88;;
21107;SDS011;10712;52.944;9.098;2022-08-01T06:43:22;11.07;;;2.05;;
21107;SDS011;10712;52.944;9.098;2022-08-01T06:45:48;6.05;;;2.33;;
21107;SDS011;10712;52.944;9.098;2022-08-01T06:48:14;7.05;;;2.33;;
21107;SDS011;10712;52.944;9.098;2022-08-01T06:50:40;6.03;;;2.33;;
21107;SDS011;10712;52.944;9.098;2022-08-01T06:53:06;8.95;;;2.28;;
21107;SDS011;10712;52.944;9.098;2022-08-01T06:55:32;6.53;;;2.38;;
21107;SDS011;10712;52.944;9.098;2022-08-01T06:57:58;4.85;;;1.80;;
21107;SDS011;10712;52.944;9.098;2022-08-01T07:00:24;10.20;;;2.35;;
21107;SDS011;10712;52.944;9.098;2022-08-01T07:02:53;8.07;;;1.95;;
21107;SDS011;10712;52.944;9.098;2022-08-01T07:05:21;6.45;;;2.13;;
21107;SDS011;10712;52.944;9.098;2022-08-01T07:07:48;8.00;;;2.47;;
21107;SDS011;10712;52.944;9.098;2022-08-01T07:10:14;9.77;;;2.13;;
21107;SDS011;10712;52.944;9.098;2022-08-01T07:12:41;9.23;;;2.75;;
21107;SDS011;10712;52.944;9.098;2022-08-01T07:15:08;6.10;;;2.88;;
21107;SDS011;10712;52.944;9.098;2022-08-01T07:17:41;9.70;;;3.15;;
21107;SDS011;10712;52.944;9.098;2022-08-01T07:20:08;7.18;;;2.95;;
21107;SDS011;10712;52.944;9.098;2022-08-01T07:22:37;12.23;;;3.78;;
21107;SDS011;10712;52.944;9.098;2022-08-01T07:25:04;13.15;;;3.50;;
21107;SDS011;10712;52.944;9.098;2022-08-01T07:27:31;9.70;;;3.55;;
21107;SDS011;10712;52.944;9.098;2022-08-01T07:29:57;18.15;;;3.53;;
21107;SDS011;10712;52.944;9.098;2022-08-01T07:32:25;10.80;;;3.22;;
21107;SDS011;10712;52.944;9.098;2022-08-01T07:34:57;15.32;;;3.08;;
21107;SDS011;10712;52.944;9.098;2022-08-01T07:37:22;10.55;;;3.55;;
21107;SDS011;10712;52.944;9.098;2022-08-01T07:39:49;10.15;;;3.65;;
21107;SDS011;10712;52.944;9.098;2022-08-01T07:42:15;15.57;;;3.42;;
21107;SDS011;10712;52.944;9.098;2022-08-01T07:44:41;10.50;;;3.38;;
21107;SDS011;10712;52.944;9.098;2022-08-01T07:47:06;11.95;;;3.53;;
21107;SDS011;10712;52.944;9.098;2022-08-01T07:49:32;13.15;;;3.10;;
21107;SDS011;10712;52.944;9.098;2022-08-01T07:51:59;16.00;;;3.88;;
21107;SDS011;10712;52.944;9.098;2022-08-01T07:54:25;13.88;;;3.13;;
21107;SDS011;10712;52.944;9.098;2022-08-01T07:56:53;15.07;;;4.10;;
21107;SDS011;10712;52.944;9.098;2022-08-01T07:59:19;9.57;;;3.10;;
21107;SDS011;10712;52.944;9.098;2022-08-01T08:01:50;11.38;;;3.13;;
21107;SDS011;10712;52.944;9.098;2022-08-01T08:04:17;14.45;;;3.80;;
21107;SDS011;10712;52.944;9.098;2022-08-01T08:06:43;14.82;;;4.40;;
21107;SDS011;10712;52.944;9.098;2022-08-01T08:09:12;19.58;;;4.25;;
21107;SDS011;10712;52.944;9.098;2022-08-01T08:11:39;13.32;;;4.63;;
21107;SDS011;10712;52.944;9.098;2022-08-01T08:14:07;13.80;;;4.18;;
21107;SDS011;10712;52.944;9.098;2022-08-01T08:16:32;12.90;;;4.00;;
21107;SDS011;10712;52.944;9.098;2022-08-01T08:18:58;10.98;;;3.72;;
21107;SDS011;10712;52.944;9.098;2022-08-01T08:21:24;14.80;;;3.55;;
21107;SDS011;10712;52.944;9.098;2022-08-01T08:23:50;14.40;;;4.22;;
21107;SDS011;10712;52.944;9.098;2022-08-01T08:26:34;16.08;;;4.38;;
21107;SDS011;10712;52.944;9.098;2022-08-01T08:29:00;14.18;;;3.97;;
21107;SDS011;10712;52.944;9.098;2022-08-01T08:31:26;15.07;;;3.88;;
21107;SDS011;10712;52.944;9.098;2022-08-01T08:33:52;10.60;;;3.42;;
21107;SDS011;10712;52.944;9.098;2022-08-01T08:36:17;14.50;;;5.10;;
21107;SDS011;10712;52.944;9.098;2022-08-01T08:38:43;15.30;;;3.95;;
21107;SDS011;10712;52.944;9.098;2022-08-01T08:41:09;9.77;;;3.35;;
21107;SDS011;10712;52.944;9.098;2022-08-01T08:43:35;13.77;;;4.10;;
21107;SDS011;10712;52.944;9.098;2022-08-01T08:46:02;11.25;;;4.22;;
21107;SDS011;10712;52.944;9.098;2022-08-01T08:48:33;16.95;;;4.55;;
21107;SDS011;10712;52.944;9.098;2022-08-01T08:51:02;16.38;;;4.53;;
21107;SDS011;10712;52.944;9.098;2022-08-01T08:53:28;15.82;;;3.97;;
21107;SDS011;10712;52.944;9.098;2022-08-01T08:55:58;11.10;;;3.30;;
21107;SDS011;10712;52.944;9.098;2022-08-01T08:58:25;13.48;;;4.00;;
21107;SDS011;10712;52.944;9.098;2022-08-01T09:00:53;11.27;;;3.78;;
21107;SDS011;10712;52.944;9.098;2022-08-01T09:03:20;15.52;;;4.07;;
21107;SDS011;10712;52.944;9.098;2022-08-01T09:05:45;15.27;;;3.92;;
21107;SDS011;10712;52.944;9.098;2022-08-01T09:08:11;16.20;;;4.45;;
21107;SDS011;10712;52.944;9.098;2022-08-01T09:10:37;13.10;;;3.42;;
21107;SDS011;10712;52.944;9.098;2022-08-01T09:13:07;13.07;;;3.97;;
21107;SDS011;10712;52.944;9.098;2022-08-01T09:15:38;11.25;;;4.30;;
21107;SDS011;10712;52.944;9.098;2022-08-01T09:21:10;13.38;;;3.78;;
21107;SDS011;10712;52.944;9.098;2022-08-01T09:23:53;10.90;;;3.63;;
21107;SDS011;10712;52.944;9.098;2022-08-01T09:26:30;12.98;;;3.97;;
21107;SDS011;10712;52.944;9.098;2022-08-01T09:29:00;15.70;;;2.83;;
21107;SDS011;10712;52.944;9.098;2022-08-01T09:31:38;13.82;;;3.25;;
21107;SDS011;10712;52.944;9.098;2022-08-01T09:34:07;16.00;;;3.15;;
21107;SDS011;10712;52.944;9.098;2022-08-01T09:39:26;13.35;;;2.55;;
21107;SDS011;10712;52.944;9.098;2022-08-01T09:42:18;7.05;;;2.28;;
21107;SDS011;10712;52.944;9.098;2022-08-01T09:44:50;10.48;;;2.97;;
21107;SDS011;10712;52.944;9.098;2022-08-01T09:47:16;9.88;;;1.90;;
21107;SDS011;10712;52.944;9.098;2022-08-01T09:49:46;12.20;;;2.22;;
21107;SDS011;10712;52.944;9.098;2022-08-01T09:52:21;13.15;;;2.80;;
21107;SDS011;10712;52.944;9.098;2022-08-01T09:57:25;8.90;;;2.40;;
21107;SDS011;10712;52.944;9.098;2022-08-01T09:59:52;6.68;;;2.30;;
21107;SDS011;10712;52.944;9.098;2022-08-01T10:02:32;7.18;;;2.15;;
21107;SDS011;10712;52.944;9.098;2022-08-01T10:05:03;7.88;;;2.03;;
21107;SDS011;10712;52.944;9.098;2022-08-01T10:07:32;11.52;;;2.58;;
21107;SDS011;10712;52.944;9.098;2022-08-01T10:10:11;7.70;;;1.77;;
21107;SDS011;10712;52.944;9.098;2022-08-01T10:12:39;8.23;;;1.83;;
21107;SDS011;10712;52.944;9.098;2022-08-01T10:15:09;9.48;;;2.65;;
21107;SDS011;10712;52.944;9.098;2022-08-01T10:17:41;14.05;;;2.30;;
21107;SDS011;10712;52.944;9.098;2022-08-01T10:20:31;11.70;;;2.58;;
21107;SDS011;10712;52.944;9.098;2022-08-01T10:23:00;6.32;;;2.13;;
21107;SDS011;10712;52.944;9.098;2022-08-01T10:25:29;7.72;;;2.10;;
21107;SDS011;10712;52.944;9.098;2022-08-01T10:28:04;6.15;;;1.63;;
21107;SDS011;10712;52.944;9.098;2022-08-01T10:30:43;11.15;;;2.17;;
21107;SDS011;10712;52.944;9.098;2022-08-01T10:33:11;7.70;;;2.20;;
21107;SDS011;10712;52.944;9.098;2022-08-01T10:35:41;8.30;;;1.75;;
21107;SDS011;10712;52.944;9.098;2022-08-01T10:38:10;15.75;;;2.42;;
21107;SDS011;10712;52.944;9.098;2022-08-01T10:40:37;9.98;;;2.28;;
21107;SDS011;10712;52.944;9.098;2022-08-01T10:43:05;8.68;;;1.75;;
21107;SDS011;10712;52.944;9.098;2022-08-01T10:45:31;8.27;;;1.55;;
21107;SDS011;10712;52.944;9.098;2022-08-01T10:50:48;7.07;;;1.17;;
21107;SDS011;10712;52.944;9.098;2022-08-01T10:53:18;9.45;;;2.22;;
21107;SDS011;10712;52.944;9.098;2022-08-01T10:58:35;9.80;;;1.38;;
21107;SDS011;10712;52.944;9.098;2022-08-01T11:04:26;14.07;;;2.08;;
21107;SDS011;10712;52.944;9.098;2022-08-01T11:06:36;10.38;;;1.90;;
21107;SDS011;10712;52.944;9.098;2022-08-01T11:14:27;6.47;;;1.52;;
21107;SDS011;10712;52.944;9.098;2022-08-01T11:16:54;8.10;;;1.65;;
21107;SDS011;10712;52.944;9.098;2022-08-01T11:19:20;8.43;;;1.88;;
21107;SDS011;10712;52.944;9.098;2022-08-01T11:27:23;6.80;;;1.60;;
21107;SDS011;10712;52.944;9.098;2022-08-01T11:35:15;6.20;;;1.52;;
21107;SDS011;10712;52.944;9.098;2022-08-01T11:37:43;10.93;;;2.20;;
21107;SDS011;10712;52.944;9.098;2022-08-01T11:43:36;13.85;;;3.40;;
21107;SDS011;10712;52.944;9.098;2022-08-01T11:45:51;7.80;;;1.70;;
21107;SDS011;10712;52.944;9.098;2022-08-01T11:48:21;8.63;;;1.90;;
21107;SDS011;10712;52.944;9.098;2022-08-01T11:50:52;6.40;;;1.60;;
21107;SDS011;10712;52.944;9.098;2022-08-01T11:53:20;5.00;;;1.35;;
21107;SDS011;10712;52.944;9.098;2022-08-01T11:55:47;11.10;;;1.88;;
21107;SDS011;10712;52.944;9.098;2022-08-01T11:58:21;5.50;;;1.38;;
21107;SDS011;10712;52.944;9.098;2022-08-01T12:00:52;7.90;;;1.75;;
21107;SDS011;10712;52.944;9.098;2022-08-01T12:03:28;11.13;;;1.85;;
21107;SDS011;10712;52.944;9.098;2022-08-01T12:05:57;7.55;;;1.75;;
21107;SDS011;10712;52.944;9.098;2022-08-01T12:08:27;12.50;;;1.77;;
21107;SDS011;10712;52.944;9.098;2022-08-01T12:11:03;6.30;;;1.63;;
21107;SDS011;10712;52.944;9.098;2022-08-01T12:13:42;11.13;;;1.50;;
21107;SDS011;10712;52.944;9.098;2022-08-01T12:16:10;7.65;;;1.58;;
21107;SDS011;10712;52.944;9.098;2022-08-01T12:18:40;7.45;;;1.67;;
21107;SDS011;10712;52.944;9.098;2022-08-01T12:21:07;5.05;;;1.33;;
21107;SDS011;10712;52.944;9.098;2022-08-01T12:23:33;6.68;;;1.73;;
21107;SDS011;10712;52.944;9.098;2022-08-01T12:25:59;9.35;;;2.15;;
21107;SDS011;10712;52.944;9.098;2022-08-01T12:28:25;4.75;;;1.30;;
21107;SDS011;10712;52.944;9.098;2022-08-01T12:30:52;7.18;;;1.98;;
21107;SDS011;10712;52.944;9.098;2022-08-01T12:33:18;7.25;;;1.17;;
21107;SDS011;10712;52.944;9.098;2022-08-01T12:35:45;8.73;;;1.58;;
21107;SDS011;10712;52.944;9.098;2022-08-01T12:38:19;7.88;;;1.85;;
21107;SDS011;10712;52.944;9.098;2022-08-01T12:40:51;12.32;;;2.35;;
21107;SDS011;10712;52.944;9.098;2022-08-01T12:43:18;6.78;;;2.03;;
21107;SDS011;10712;52.944;9.098;2022-08-01T12:45:48;7.13;;;1.65;;
21107;SDS011;10712;52.944;9.098;2022-08-01T12:48:16;9.02;;;2.08;;
21107;SDS011;10712;52.944;9.098;2022-08-01T12:50:44;9.25;;;2.22;;
21107;SDS011;10712;52.944;9.098;2022-08-01T12:53:13;8.48;;;1.55;;
21107;SDS011;10712;52.944;9.098;2022-08-01T12:55:44;4.88;;;1.50;;
21107;SDS011;10712;52.944;9.098;2022-08-01T12:58:13;9.75;;;1.83;;
21107;SDS011;10712;52.944;9.098;2022-08-01T13:00:43;4.10;;;1.40;;
21107;SDS011;10712;52.944;9.098;2022-08-01T13:06:01;6.50;;;1.27;;
21107;SDS011;10712;52.944;9.098;2022-08-01T13:08:34;7.53;;;1.23;;
21107;SDS011;10712;52.944;9.098;2022-08-01T13:11:03;6.78;;;1.92;;
21107;SDS011;10712;52.944;9.098;2022-08-01T13:13:46;7.13;;;1.40;;
21107;SDS011;10712;52.944;9.098;2022-08-01T13:18:38;7.72;;;1.50;;
21107;SDS011;10712;52.944;9.098;2022-08-01T13:24:00;7.45;;;1.63;;
21107;SDS011;10712;52.944;9.098;2022-08-01T13:29:08;5.65;;;1.23;;
21107;SDS011;10712;52.944;9.098;2022-08-01T13:31:36;8.00;;;1.83;;
21107;SDS011;10712;52.944;9.098;2022-08-01T13:34:04;9.52;;;1.98;;
21107;SDS011;10712;52.944;9.098;2022-08-01T13:36:31;9.00;;;1.60;;
21107;SDS011;10712;52.944;9.098;2022-08-01T13:38:57;5.65;;;1.65;;
21107;SDS011;10712;52.944;9.098;2022-08-01T13:41:42;8.65;;;1.38;;
21107;SDS011;10712;52.944;9.098;2022-08-01T13:44:09;11.98;;;2.00;;
21107;SDS011;10712;52.944;9.098;2022-08-01T13:46:38;6.22;;;1.80;;
21107;SDS011;10712;52.944;9.098;2022-08-01T13:49:06;5.32;;;1.20;;
21107;SDS011;10712;52.944;9.098;2022-08-01T13:51:35;3.88;;;1.10;;
21107;SDS011;10712;52.944;9.098;2022-08-01T13:54:02;6.30;;;1.85;;
21107;SDS011;10712;52.944;9.098;2022-08-01T13:56:28;8.98;;;1.92;;
21107;SDS011;10712;52.944;9.098;2022-08-01T13:58:55;11.25;;;1.95;;
21107;SDS011;10712;52.944;9.098;2022-08-01T14:01:22;12.15;;;1.77;;
21107;SDS011;10712;52.944;9.098;2022-08-01T14:03:49;7.30;;;1.40;;
21107;SDS011;10712;52.944;9.098;2022-08-01T14:06:16;8.50;;;1.83;;
21107;SDS011;10712;52.944;9.098;2022-08-01T14:08:43;2.67;;;1.50;;
21107;SDS011;10712;52.944;9.098;2022-08-01T14:11:10;6.95;;;1.52;;
21107;SDS011;10712;52.944;9.098;2022-08-01T14:13:36;4.75;;;1.33;;
21107;SDS011;10712;52.944;9.098;2022-08-01T14:16:04;6.95;;;1.30;;
21107;SDS011;10712;52.944;9.098;2022-08-01T14:18:31;6.07;;;1.70;;
21107;SDS011;10712;52.944;9.098;2022-08-01T14:20:57;6.80;;;1.60;;
21107;SDS011;10712;52.944;9.098;2022-08-01T14:23:23;7.88;;;2.13;;
21107;SDS011;10712;52.944;9.098;2022-08-01T14:25:49;9.73;;;2.28;;
21107;SDS011;10712;52.944;9.098;2022-08-01T14:28:15;8.10;;;1.90;;
21107;SDS011;10712;52.944;9.098;2022-08-01T14:30:41;9.85;;;1.70;;
21107;SDS011;10712;52.944;9.098;2022-08-01T14:33:08;9.57;;;1.98;;
21107;SDS011;10712;52.944;9.098;2022-08-01T14:35:38;6.38;;;1.67;;
21107;SDS011;10712;52.944;9.098;2022-08-01T14:38:04;6.93;;;2.47;;
21107;SDS011;10712;52.944;9.098;2022-08-01T14:40:30;3.88;;;1.23;;
21107;SDS011;10712;52.944;9.098;2022-08-01T14:42:56;5.45;;;1.40;;
21107;SDS011;10712;52.944;9.098;2022-08-01T14:45:22;11.65;;;2.17;;
21107;SDS011;10712;52.944;9.098;2022-08-01T14:47:48;5.97;;;1.35;;
21107;SDS011;10712;52.944;9.098;2022-08-01T14:50:14;5.88;;;1.55;;
21107;SDS011;10712;52.944;9.098;2022-08-01T14:52:41;7.93;;;1.63;;
21107;SDS011;10712;52.944;9.098;2022-08-01T14:55:08;9.55;;;1.85;;
21107;SDS011;10712;52.944;9.098;2022-08-01T14:57:37;7.07;;;1.42;;
21107;SDS011;10712;52.944;9.098;2022-08-01T15:00:04;5.90;;;1.77;;
21107;SDS011;10712;52.944;9.098;2022-08-01T15:02:39;7.35;;;2.30;;
21107;SDS011;10712;52.944;9.098;2022-08-01T15:05:06;5.78;;;1.65;;
21107;SDS011;10712;52.944;9.098;2022-08-01T15:07:33;10.20;;;1.77;;
21107;SDS011;10712;52.944;9.098;2022-08-01T15:10:00;9.02;;;1.83;;
21107;SDS011;10712;52.944;9.098;2022-08-01T15:12:27;7.47;;;1.98;;
21107;SDS011;10712;52.944;9.098;2022-08-01T15:14:53;4.20;;;1.60;;
21107;SDS011;10712;52.944;9.098;2022-08-01T15:19:50;9.40;;;1.58;;
21107;SDS011;10712;52.944;9.098;2022-08-01T15:22:18;6.78;;;1.80;;
21107;SDS011;10712;52.944;9.098;2022-08-01T15:24:49;3.28;;;1.35;;
21107;SDS011;10712;52.944;9.098;2022-08-01T15:27:18;4.40;;;1.08;;
21107;SDS011;10712;52.944;9.098;2022-08-01T15:29:44;5.93;;;1.77;;
21107;SDS011;10712;52.944;9.098;2022-08-01T15:32:10;11.02;;;1.92;;
21107;SDS011;10712;52.944;9.098;2022-08-01T15:34:47;5.80;;;1.33;;
21107;SDS011;10712;52.944;9.098;2022-08-01T15:37:13;8.13;;;1.60;;
21107;SDS011;10712;52.944;9.098;2022-08-01T15:39:39;9.25;;;1.50;;
21107;SDS011;10712;52.944;9.098;2022-08-01T15:42:07;8.18;;;1.80;;
21107;SDS011;10712;52.944;9.098;2022-08-01T15:44:36;6.95;;;1.92;;
21107;SDS011;10712;52.944;9.098;2022-08-01T15:47:02;7.43;;;1.52;;
21107;SDS011;10712;52.944;9.098;2022-08-01T15:49:29;8.20;;;2.15;;
21107;SDS011;10712;52.944;9.098;2022-08-01T15:51:57;5.78;;;1.30;;
21107;SDS011;10712;52.944;9.098;2022-08-01T15:54:23;10.52;;;1.83;;
21107;SDS011;10712;52.944;9.098;2022-08-01T15:56:49;8.35;;;1.50;;
21107;SDS011;10712;52.944;9.098;2022-08-01T15:59:16;5.50;;;1.35;;
21107;SDS011;10712;52.944;9.098;2022-08-01T16:01:42;10.05;;;1.98;;